createdAt,value
2022-12-16T00:03:01.760Z,42.22
2022-12-16T00:08:04.569Z,41.70
2022-12-16T00:13:10.506Z,39.20
2022-12-16T00:18:15.796Z,39.15
2022-12-16T00:23:17.592Z,37.50
2022-12-16T00:28:23.321Z,35.35
2022-12-16T00:33:26.552Z,29.95
2022-12-16T00:38:28.266Z,27.38
2022-12-16T00:43:30.000Z,25.52
2022-12-16T00:48:31.821Z,23.65
2022-12-16T00:53:33.785Z,21.52
2022-12-16T00:58:36.317Z,19.30
2022-12-16T01:03:38.950Z,16.40
2022-12-16T01:08:48.206Z,15.32
2022-12-16T01:13:51.925Z,14.60
2022-12-16T01:18:56.310Z,12.45
2022-12-16T01:23:58.265Z,11.68
2022-12-16T01:28:59.986Z,10.88
2022-12-16T01:34:01.604Z,10.30
2022-12-16T01:39:03.354Z,9.40
2022-12-16T01:44:25.315Z,9.40
2022-12-16T01:49:34.164Z,9.45
2022-12-16T01:54:39.960Z,9.77
2022-12-16T01:59:45.576Z,10.18
2022-12-16T02:05:06.627Z,9.30
2022-12-16T02:10:08.967Z,9.90
2022-12-16T02:15:34.879Z,9.55
2022-12-16T02:21:05.871Z,9.98
2022-12-16T02:26:26.396Z,10.38
2022-12-16T02:31:57.809Z,9.98
2022-12-16T02:37:08.631Z,10.20
2022-12-16T02:42:37.296Z,8.93
2022-12-16T02:47:39.899Z,9.48
2022-12-16T02:52:41.832Z,8.48
2022-12-16T02:58:14.987Z,8.75
2022-12-16T03:03:45.797Z,9.05
2022-12-16T03:08:52.280Z,9.70
2022-12-16T03:13:56.003Z,9.43
2022-12-16T03:19:03.137Z,10.02
2022-12-16T03:24:10.677Z,9.27
2022-12-16T03:29:49.735Z,9.35
2022-12-16T03:35:09.634Z,8.93
2022-12-16T03:40:13.507Z,9.82
2022-12-16T03:45:23.570Z,9.88
2022-12-16T03:50:33.513Z,10.25
2022-12-16T03:55:35.603Z,9.20
2022-12-16T04:00:37.210Z,10.27
2022-12-16T04:05:38.844Z,9.45
2022-12-16T04:10:59.132Z,8.60
2022-12-16T04:16:19.589Z,8.75
2022-12-16T04:21:39.552Z,8.57
2022-12-16T04:27:00.048Z,8.77
2022-12-16T04:32:01.676Z,8.48
2022-12-16T04:37:21.714Z,9.35
2022-12-16T04:42:41.892Z,9.10
2022-12-16T04:48:02.174Z,9.10
2022-12-16T04:53:22.356Z,10.15
2022-12-16T04:58:42.940Z,9.70
2022-12-16T05:04:03.221Z,9.85
2022-12-16T05:09:24.631Z,11.27
2022-12-16T05:14:44.710Z,11.23
2022-12-16T05:20:05.203Z,11.77
2022-12-16T05:25:26.252Z,11.55
2022-12-16T05:30:46.586Z,12.18
2022-12-16T05:36:06.746Z,12.52
2022-12-16T05:41:26.765Z,11.35
2022-12-16T05:46:46.808Z,10.38
2022-12-16T05:52:07.173Z,9.55
2022-12-16T05:57:27.170Z,8.60
2022-12-16T06:02:47.372Z,9.25
2022-12-16T06:08:11.132Z,8.63
2022-12-16T06:13:31.369Z,8.35
2022-12-16T06:18:51.394Z,8.35
2022-12-16T06:24:11.660Z,7.90
2022-12-16T06:29:31.972Z,7.07
2022-12-16T06:34:52.170Z,8.27
2022-12-16T06:40:12.319Z,8.80
2022-12-16T06:45:34.963Z,13.80
2022-12-16T06:50:55.946Z,13.25
2022-12-16T06:56:16.719Z,26.80
2022-12-16T07:01:37.575Z,21.15
2022-12-16T07:06:57.725Z,21.85
2022-12-16T07:12:17.786Z,15.13
2022-12-16T07:17:38.013Z,15.23
2022-12-16T07:23:09.844Z,14.82
2022-12-16T07:28:32.205Z,16.67
2022-12-16T07:33:52.059Z,15.50
2022-12-16T07:39:12.544Z,19.90
2022-12-16T07:44:32.397Z,21.70
2022-12-16T07:49:52.557Z,19.45
2022-12-16T07:55:15.233Z,17.73
2022-12-16T08:00:35.629Z,15.30
2022-12-16T08:05:56.221Z,20.65
2022-12-16T08:11:16.235Z,18.52
2022-12-16T08:16:36.515Z,17.67
2022-12-16T08:21:57.066Z,19.38
2022-12-16T08:27:17.003Z,19.38
2022-12-16T08:32:37.070Z,17.67
2022-12-16T08:37:57.989Z,18.10
2022-12-16T08:43:18.079Z,17.35
2022-12-16T08:48:38.211Z,16.00
2022-12-16T08:53:58.469Z,17.13
2022-12-16T08:59:18.660Z,21.10
2022-12-16T09:04:38.988Z,17.95
2022-12-16T09:09:59.173Z,15.50
2022-12-16T09:15:19.565Z,16.63
2022-12-16T09:20:39.460Z,15.45
2022-12-16T09:25:59.971Z,15.05
2022-12-16T09:31:20.056Z,16.30
2022-12-16T09:36:40.295Z,17.35
2022-12-16T09:42:03.113Z,17.17
2022-12-16T09:47:34.511Z,19.05
2022-12-16T09:53:12.009Z,19.98
2022-12-16T09:58:33.865Z,15.48
2022-12-16T10:03:58.684Z,15.82
2022-12-16T10:09:35.020Z,18.02
2022-12-16T10:15:08.961Z,21.17
2022-12-16T10:20:39.714Z,19.60
2022-12-16T10:26:26.724Z,23.05
2022-12-16T10:31:47.797Z,25.05
2022-12-16T10:37:14.137Z,28.05
2022-12-16T10:42:42.608Z,30.43
2022-12-16T10:48:02.747Z,32.80
2022-12-16T10:53:33.641Z,34.72
2022-12-16T10:59:12.245Z,37.65
2022-12-16T11:04:52.039Z,34.97
2022-12-16T11:10:21.349Z,33.22
2022-12-16T11:15:49.865Z,30.48
2022-12-16T11:21:32.464Z,29.45
2022-12-16T11:26:52.690Z,30.65
2022-12-16T11:32:26.911Z,26.13
2022-12-16T11:37:48.165Z,25.52
2022-12-16T11:43:14.124Z,23.70
2022-12-16T11:48:56.600Z,21.25
2022-12-16T11:54:41.953Z,20.20
2022-12-16T12:00:20.081Z,21.27
2022-12-16T12:05:49.656Z,20.20
2022-12-16T12:11:31.810Z,21.40
2022-12-16T12:17:16.118Z,20.02
2022-12-16T12:22:49.468Z,20.73
2022-12-16T12:28:19.203Z,29.85
2022-12-16T12:34:12.937Z,25.45
2022-12-16T12:39:50.334Z,21.75
2022-12-16T12:45:25.627Z,22.00
2022-12-16T12:50:57.044Z,24.33
2022-12-16T12:56:20.095Z,21.70
2022-12-16T13:01:43.868Z,20.85
2022-12-16T13:07:05.270Z,21.25
2022-12-16T13:12:25.377Z,20.23
2022-12-16T13:17:45.932Z,19.17
2022-12-16T13:23:06.719Z,19.85
2022-12-16T13:28:40.643Z,19.52
2022-12-16T13:34:10.295Z,20.05
2022-12-16T13:39:50.803Z,19.45
2022-12-16T13:45:10.738Z,19.23
2022-12-16T13:50:56.561Z,19.85
2022-12-16T13:56:19.247Z,19.42
2022-12-16T14:01:51.960Z,21.88
2022-12-16T14:07:12.711Z,32.30
2022-12-16T14:12:57.173Z,43.53
2022-12-16T14:18:27.478Z,22.42
2022-12-16T14:24:16.967Z,20.35
2022-12-16T14:29:41.559Z,22.05
2022-12-16T14:35:01.624Z,22.50
2022-12-16T14:40:23.778Z,23.52
2022-12-16T14:45:50.487Z,25.88
2022-12-16T14:51:27.243Z,28.10
2022-12-16T14:56:49.631Z,29.63
2022-12-16T15:02:12.064Z,30.02
2022-12-16T15:07:33.543Z,27.33
2022-12-16T15:12:58.745Z,28.92
2022-12-16T15:18:21.273Z,30.65
2022-12-16T15:23:48.397Z,32.47
2022-12-16T15:29:08.736Z,33.40
2022-12-16T15:35:16.226Z,33.95
2022-12-16T15:40:47.857Z,35.10
2022-12-16T15:46:09.731Z,38.55
2022-12-16T15:52:04.337Z,35.20
2022-12-16T15:57:48.889Z,35.97
2022-12-16T16:03:09.920Z,35.72
2022-12-16T16:08:30.500Z,34.70
2022-12-16T16:13:50.770Z,36.70
2022-12-16T16:19:11.075Z,35.10
2022-12-16T16:24:31.534Z,36.60
2022-12-16T16:29:51.896Z,35.28
2022-12-16T16:35:12.061Z,33.08
2022-12-16T16:40:44.409Z,37.05
2022-12-16T16:46:12.097Z,38.30
2022-12-16T16:51:32.117Z,48.38
2022-12-16T16:56:54.167Z,54.53
2022-12-16T17:02:14.547Z,41.28
2022-12-16T17:07:35.033Z,37.63
2022-12-16T17:12:58.573Z,38.67
2022-12-16T17:18:22.704Z,40.85
2022-12-16T17:23:42.898Z,40.83
2022-12-16T17:29:02.816Z,41.00
2022-12-16T17:34:23.117Z,42.55
2022-12-16T17:39:43.359Z,44.70
2022-12-16T17:45:03.679Z,42.50
2022-12-16T17:50:24.648Z,41.60
2022-12-16T17:55:45.096Z,43.15
2022-12-16T18:01:05.038Z,43.75
2022-12-16T18:06:25.663Z,43.25
2022-12-16T18:11:46.220Z,44.55
2022-12-16T18:17:06.906Z,43.08
2022-12-16T18:22:28.420Z,45.30
2022-12-16T18:27:48.977Z,48.17
2022-12-16T18:33:09.627Z,46.67
2022-12-16T18:38:29.953Z,46.13
2022-12-16T18:43:50.007Z,44.72
2022-12-16T18:49:10.237Z,45.05
2022-12-16T18:54:30.444Z,47.60
2022-12-16T18:59:50.651Z,45.00
2022-12-16T19:05:10.459Z,45.45
2022-12-16T19:10:30.712Z,44.55
2022-12-16T19:15:50.845Z,45.55
2022-12-16T19:21:12.716Z,44.20
2022-12-16T19:26:32.939Z,45.38
2022-12-16T19:31:53.046Z,46.88
2022-12-16T19:37:16.316Z,45.05
2022-12-16T19:42:36.608Z,45.35
2022-12-16T19:47:57.015Z,45.00
2022-12-16T19:53:18.306Z,44.42
2022-12-16T19:58:39.960Z,42.55
2022-12-16T20:03:59.955Z,42.00
2022-12-16T20:09:20.225Z,43.95
2022-12-16T20:14:40.213Z,41.85
2022-12-16T20:20:00.302Z,42.22
2022-12-16T20:25:20.576Z,44.63
2022-12-16T20:30:40.576Z,46.15
2022-12-16T20:36:00.901Z,46.53
2022-12-16T20:41:22.870Z,45.25
2022-12-16T20:46:43.112Z,43.90
2022-12-16T20:52:03.452Z,45.75
2022-12-16T20:57:23.564Z,45.42
2022-12-16T21:02:43.982Z,46.80
2022-12-16T21:08:04.262Z,45.75
2022-12-16T21:13:28.262Z,46.10
2022-12-16T21:18:48.626Z,44.88
2022-12-16T21:24:08.937Z,43.92
2022-12-16T21:29:29.022Z,43.72
2022-12-16T21:34:50.197Z,44.67
2022-12-16T21:40:10.821Z,43.67
2022-12-16T21:45:31.204Z,46.60
2022-12-16T21:50:51.784Z,42.30
2022-12-16T21:56:12.640Z,44.28
2022-12-16T22:01:32.665Z,43.15
2022-12-16T22:06:52.954Z,45.10
2022-12-16T22:12:13.371Z,43.75
2022-12-16T22:17:33.424Z,45.47
2022-12-16T22:22:53.372Z,46.67
2022-12-16T22:28:13.646Z,44.47
2022-12-16T22:33:33.565Z,45.67
2022-12-16T22:38:56.351Z,45.83
2022-12-16T22:44:16.915Z,44.03
2022-12-16T22:49:37.032Z,46.85
2022-12-16T22:55:00.169Z,45.40
2022-12-16T23:00:20.329Z,43.88
2022-12-16T23:05:40.677Z,45.25
2022-12-16T23:11:01.557Z,43.80
2022-12-16T23:16:21.794Z,42.88
2022-12-16T23:21:41.906Z,43.53
2022-12-16T23:27:02.682Z,42.67
2022-12-16T23:32:23.254Z,42.60
2022-12-16T23:37:43.660Z,44.75
2022-12-16T23:43:05.400Z,40.72
2022-12-16T23:48:28.314Z,40.67
2022-12-16T23:53:48.311Z,42.22
2022-12-16T23:59:08.491Z,41.35
